ETHA

Altenstadt Army Airfield Airport

Altenstadt, Germany
METAR ETHA 190620Z 18001KT 9999 FEW070 18/13 Q1019 BLU+BLU+
Observed Flight Rules
Jul-19 @ 06:20 UTC (an hour ago) Visual Flight Rules
Wind Visibility Clouds
180° at 1 knots 10,000+ meters
  • Few at 7,000' AGL
Temperatures Readings
Current 18°C / 64°F
Dewpoint 13°C / 55°F
Humidity 73%
Altimeter 30.09" Hg
Pressure 1019 hPa
Elevation 760
METAR ETHA 190620Z 18001KT 9999 FEW070 18/13 Q1019 BLU+BLU+
Observed Flight Rules
Jul-19 @ 06:20 UTC
(an hour ago)
VFR
Wind Visibility
180° at 1 knots 10,000+ meters
Clouds
  • Few at 7,000' AGL
Temperature Dewpoint
18°C / 64°F 13°C / 55°F
Humidity Altimeter Pressure
73% 30.09" Hg 1019 hPa